Ayr Alva Beach, Queensland

7:23 AM EST on July 11, 2014 (GMT +1000)
Home Hill (IQUEENSL436) Elev 56 ft | 19.66 °S, 147.42 °E | Change Station

Current weather conditions updated 16 seconds ago

Clear
Clear
50.5 °F
Feels Like 50.5 °F
N
4.5
Wind Variable Wind from SSW
Gusts 5.4 mph

Today is forecast to be Much Cooler than yesterday.

Today
High -- | Low -- °F
--% Chance of Precip.
Yesterday
High -- | Low -- °F
Precip. -- in
6:44 AM 5:46 PM
Waxing Gibbous, 96% visible
Pressure 30.09 in
Visibility -9999.0 miles
Clouds
Dew Point 38 °F
Humidity 61%
Rainfall 0.00 in
Snow Depth Not available.
UV Not available.
Pollen Not available.
Air Quality Not available.
Flu Activity Not available.
METAR YBTL 102100Z 27004KT CAVOK 11/M01 Q1019 NOSIG

More Conditions Fewer Conditions

Pressure 30.09 in
Visibility -9999.0 miles
Clouds
Dew Point 38 °F
Humidity 61%
Rainfall 0.00 in
Snow Depth Not available.
UV Not available.
Pollen Not available.
Air Quality Not available.
Flu Activity Not available.
METAR YBTL 102100Z 27004KT CAVOK 11/M01 Q1019 NOSIG

More Conditions Fewer Conditions

10-Day Weather Forecast

Almanac

Astronomy

Jul. 11, 2014 Rise Set
Actual Time 6:44 AM EST 5:46 PM EST
Civil Twilight 6:21 AM EST 6:10 PM EST
Nautical Twilight 5:53 AM EST 6:37 PM EST
Astronomical Twilight 5:27 AM EST 7:04 PM EST
Moon 4:35 PM EST (7/11) 5:01 AM EST (7/11)
Length of Visible Light 11h 49m
Length of Day
11h 01m
Tomorrow will be 0m 26s longer.
Waxing Gibbous, 96% of the Moon is Illuminated
Jul 10
Waxing Gibbous
Jul 12
Full
Jul 18
Last Quarter
Jul 26
New
Aug 3
First Quarter

Yesterday's Extremes

Country Highs Country Lows

Community

WunderPhotos

Upload Photos

1,732,268 photos uploaded!

Nearby

Snow Depth

Not available.

Earthquake Activity

City Distance Mag. Time & Date
No recent earthquake activity has been reported nearby.
Minimum magnitude displayed is 2.5.

Coastal Water Temperatures

Place Temperature
No Stations Reporting

Nearby Weather Stations

Station Location Temp. Windchill Dew Point Humidity Wind Precip. Elev Updated Type
Home Hill, Home Hill 50.5 °F - 38 °F 61% SSW  at  4.5 mph 0.00 in / hr 56 ft 7:23 AM EST Rapid Fire
HomeHill, Home Hill 46.1 °F 46 °F 36 °F 68% WNW  at  0.0 mph 0.00 in / hr 46 ft 7:20 AM EST Normal

Show More Stations Show Fewer Stations